Time;durP1;ratioP1;P1;durP2;ratioP2;P2;SDS_P1;SDS_P2;PMS_P1;PMS_P2;Temp;Humidity;BMP_temperature;BMP_pressure;BME280_temperature;BME280_humidity;BME280_pressure;Samples;Min_cycle;Max_cycle;Signal;HPM_P1;HPM_P2
2023/12/31 09:05:23;;;;;;;6.68;2.40;;;;;;;8.74;100.00;99335.25;5792232;23;20151;-73
2023/12/31 09:07:49;;;;;;;7.25;2.65;;;;;;;8.71;100.00;99334.66;4902723;29;20056;-74
2023/12/31 09:10:14;;;;;;;7.28;2.88;;;;;;;8.69;100.00;99333.97;4886271;29;20395;-74
2023/12/31 09:12:40;;;;;;;7.05;2.30;;;;;;;8.66;100.00;99340.44;4891754;29;20127;-75
2023/12/31 09:15:06;;;;;;;6.50;2.50;;;;;;;8.64;100.00;99347.78;4896895;29;20055;-74
2023/12/31 09:17:32;;;;;;;5.88;2.08;;;;;;;8.62;100.00;99339.00;4888617;29;20025;-74
2023/12/31 09:19:58;;;;;;;6.03;2.38;;;;;;;8.61;100.00;99347.19;4896670;29;20026;-74
2023/12/31 09:22:23;;;;;;;4.38;1.90;;;;;;;8.61;100.00;99348.06;4897323;29;20028;-75
2023/12/31 09:24:50;;;;;;;5.07;2.38;;;;;;;8.61;100.00;99347.19;4896541;29;20373;-74
2023/12/31 09:27:19;;;;;;;7.68;2.45;;;;;;;8.60;100.00;99351.72;4896323;29;20389;-74
2023/12/31 09:29:45;;;;;;;8.57;2.35;;;;;;;8.62;100.00;99360.44;4892013;29;20028;-75
2023/12/31 09:32:11;;;;;;;3.25;1.75;;;;;;;8.63;100.00;99355.94;4896094;29;20043;-75
2023/12/31 09:34:36;;;;;;;4.20;1.90;;;;;;;8.63;100.00;99356.78;4896997;29;20142;-75
2023/12/31 09:37:02;;;;;;;5.57;1.90;;;;;;;8.62;100.00;99370.31;4896515;29;20361;-74
2023/12/31 09:39:27;;;;;;;5.78;1.95;;;;;;;8.62;100.00;99376.50;4892265;29;20044;-75
2023/12/31 09:41:54;;;;;;;7.90;2.38;;;;;;;8.62;100.00;99371.16;4889933;29;20037;-75
2023/12/31 09:44:20;;;;;;;3.55;1.52;;;;;;;8.62;100.00;99376.50;4893490;29;20063;-74
2023/12/31 09:47:06;;;;;;;5.15;1.77;;;;;;;8.66;100.00;99385.97;4888657;29;20032;-75
2023/12/31 09:49:33;;;;;;;5.50;1.40;;;;;;;8.66;100.00;99391.31;4888286;29;20031;-75
2023/12/31 09:52:01;;;;;;;3.88;1.67;;;;;;;8.66;100.00;99385.13;4888026;29;20298;-75
2023/12/31 09:54:27;;;;;;;4.63;1.55;;;;;;;8.68;100.00;99392.06;4903025;29;20149;-74
2023/12/31 09:56:56;;;;;;;3.90;1.35;;;;;;;8.68;100.00;99392.06;4902443;29;20419;-74
2023/12/31 09:59:24;;;;;;;6.27;1.77;;;;;;;8.69;100.00;99396.41;4892709;29;20032;-75
2023/12/31 10:01:56;;;;;;;6.28;1.83;;;;;;;8.71;100.00;99407.84;4890636;29;20403;-75
2023/12/31 10:04:22;;;;;;;3.72;1.50;;;;;;;8.71;100.00;99397.13;4892625;29;20060;-75
2023/12/31 10:06:49;;;;;;;2.97;1.08;;;;;;;8.72;100.00;99392.63;4880479;29;20120;-75
2023/12/31 10:09:18;;;;;;;3.83;1.63;;;;;;;8.73;100.00;99392.47;4877409;29;20029;-75
2023/12/31 10:11:44;;;;;;;4.30;1.55;;;;;;;8.74;100.00;99383.47;4881535;29;20029;-75
2023/12/31 10:14:10;;;;;;;5.65;1.58;;;;;;;8.76;100.00;99380.66;4880229;29;20309;-74
2023/12/31 10:16:40;;;;;;;7.80;1.75;;;;;;;8.77;100.00;99387.72;4878022;29;20506;-75
2023/12/31 10:19:06;;;;;;;5.43;1.38;;;;;;;8.79;100.00;99384.91;4873434;29;20070;-74
2023/12/31 10:21:31;;;;;;;4.70;1.45;;;;;;;8.78;100.00;99386.72;4882036;29;20040;-75
2023/12/31 10:23:56;;;;;;;5.38;1.48;;;;;;;8.78;100.00;99394.75;4872973;29;20025;-75
2023/12/31 10:26:22;;;;;;;6.68;1.83;;;;;;;8.76;100.00;99387.84;4874341;29;20604;-74
2023/12/31 10:28:48;;;;;;;5.60;1.63;;;;;;;8.71;100.00;99385.56;4878858;29;20048;-75
2023/12/31 10:31:14;;;;;;;8.48;1.83;;;;;;;8.67;100.00;99385.00;4885268;29;20331;-75
2023/12/31 10:33:40;;;;;;;3.83;1.17;;;;;;;8.65;100.00;99399.50;4881439;29;20032;-80
2023/12/31 10:36:05;;;;;;;8.95;1.88;;;;;;;8.62;100.00;99403.28;4877523;29;20032;-80
2023/12/31 10:38:51;;;;;;;4.35;1.73;;;;;;;8.52;100.00;99397.91;4887906;29;22080;-78
2023/12/31 10:41:21;;;;;;;4.25;1.67;;;;;;;8.44;100.00;99400.41;4895496;29;20359;-78
2023/12/31 10:43:47;;;;;;;4.45;1.23;;;;;;;8.39;100.00;99399.94;4895702;29;20033;-78
2023/12/31 10:46:14;;;;;;;5.28;1.40;;;;;;;8.33;100.00;99398.66;4884920;29;20021;-79
2023/12/31 10:48:47;;;;;;;3.90;1.50;;;;;;;8.29;100.00;99402.56;4889024;29;20053;-78
2023/12/31 10:51:20;;;;;;;8.48;1.90;;;;;;;8.26;100.00;99394.81;4884477;29;20461;-79
2023/12/31 10:53:49;;;;;;;5.43;1.60;;;;;;;8.25;100.00;99394.94;4894751;29;20116;-78
2023/12/31 10:56:15;;;;;;;6.68;1.15;;;;;;;8.24;100.00;99388.72;4884835;29;20112;-78
2023/12/31 14:20:48;;;;;;;10.40;2.85;;;;;;;8.44;94.25;99426.31;5131063;27;20107;-75
2023/12/31 14:23:14;;;;;;;13.63;2.75;;;;;;;8.42;93.28;99423.78;5136842;27;21108;-75
2023/12/31 14:25:39;;;;;;;12.82;2.63;;;;;;;8.40;94.14;99421.22;5118362;28;20035;-73
2023/12/31 14:28:05;;;;;;;16.52;3.33;;;;;;;8.41;93.05;99427.44;5137889;27;20462;-73
2023/12/31 14:30:30;;;;;;;10.38;2.70;;;;;;;8.43;93.79;99429.97;5141568;27;20068;-72
2023/12/31 14:32:56;;;;;;;11.82;2.53;;;;;;;8.44;92.52;99432.53;5133093;27;20087;-73
2023/12/31 14:35:21;;;;;;;13.40;2.67;;;;;;;8.47;91.20;99426.06;5121966;27;20015;-73
2023/12/31 14:37:46;;;;;;;13.23;3.00;;;;;;;8.47;90.55;99432.28;5143811;27;20634;-73
2023/12/31 14:40:12;;;;;;;9.80;2.58;;;;;;;8.50;91.28;99436.50;5121037;27;20034;-72
2023/12/31 14:42:37;;;;;;;15.02;3.72;;;;;;;8.50;91.10;99428.47;5137025;27;20027;-72
2023/12/31 14:45:03;;;;;;;12.35;3.25;;;;;;;8.50;91.98;99423.13;5141766;27;22290;-72
2023/12/31 14:47:28;;;;;;;18.75;4.13;;;;;;;8.53;90.28;99428.22;5144704;27;20091;-72
2023/12/31 14:49:54;;;;;;;14.40;3.05;;;;;;;8.53;89.22;99421.00;5165983;27;20015;-72
2023/12/31 14:52:19;;;;;;;17.10;3.47;;;;;;;8.55;89.06;99412.84;5140024;27;20031;-72
2023/12/31 14:54:44;;;;;;;17.80;3.85;;;;;;;8.57;88.66;99429.63;5135467;27;20016;-72
2023/12/31 14:57:10;;;;;;;12.23;2.58;;;;;;;8.59;88.49;99421.47;5140744;27;20034;-74
2023/12/31 14:59:35;;;;;;;15.73;3.42;;;;;;;8.60;87.23;99432.06;5141888;27;20031;-74
2023/12/31 15:02:00;;;;;;;22.55;4.10;;;;;;;8.61;87.00;99425.72;5130042;27;20027;-74
2023/12/31 15:04:26;;;;;;;18.15;4.03;;;;;;;8.63;86.97;99420.22;5130670;27;20054;-74
2023/12/31 15:06:51;;;;;;;14.93;3.08;;;;;;;8.64;88.15;99419.22;5131814;27;20038;-75
2023/12/31 15:09:16;;;;;;;18.27;3.60;;;;;;;8.64;86.57;99416.53;5126522;27;20023;-74
2023/12/31 15:11:42;;;;;;;20.35;3.55;;;;;;;8.64;87.97;99425.44;5137842;27;20492;-74
2023/12/31 15:14:09;;;;;;;12.60;3.70;;;;;;;8.64;86.14;99422.78;5138774;27;20085;-73
2023/12/31 15:16:34;;;;;;;17.70;3.88;;;;;;;8.65;86.08;99428.97;5135192;27;20078;-74
2023/12/31 15:18:59;;;;;;;23.40;4.10;;;;;;;8.64;86.25;99421.91;5130844;27;20175;-76
2023/12/31 15:21:25;;;;;;;19.52;4.90;;;;;;;8.64;84.87;99421.91;5137039;27;20036;-74
2023/12/31 15:23:50;;;;;;;19.17;4.50;;;;;;;8.64;86.10;99425.44;5132813;27;20023;-76
2023/12/31 15:26:16;;;;;;;20.80;5.43;;;;;;;8.64;85.46;99432.63;5138691;27;20027;-76
2023/12/31 15:28:41;;;;;;;17.33;5.53;;;;;;;8.63;86.08;99426.41;5126351;27;20019;-75
2023/12/31 15:31:06;;;;;;;17.38;4.25;;;;;;;8.61;86.77;99428.41;5113428;27;20547;-74
2023/12/31 15:33:31;;;;;;;17.67;4.95;;;;;;;8.61;84.99;99423.03;5110609;27;20041;-74
2023/12/31 15:35:57;;;;;;;20.60;4.22;;;;;;;8.62;87.24;99421.19;5114791;27;20030;-76
2023/12/31 15:38:22;;;;;;;18.10;3.92;;;;;;;8.60;86.93;99421.34;5116171;27;20011;-77
2023/12/31 15:40:48;;;;;;;18.58;3.95;;;;;;;8.59;86.89;99413.44;5117119;27;20027;-77
2023/12/31 15:43:14;;;;;;;18.00;4.00;;;;;;;8.57;86.43;99416.25;5125027;27;20566;-75
2023/12/31 15:45:40;;;;;;;14.80;3.55;;;;;;;8.54;86.55;99417.38;5126718;27;20111;-76
2023/12/31 15:48:06;;;;;;;18.50;4.63;;;;;;;8.55;88.38;99418.19;5124965;27;20047;-77
2023/12/31 15:50:31;;;;;;;20.30;5.10;;;;;;;8.54;87.80;99421.88;5120119;27;20513;-76
2023/12/31 15:52:56;;;;;;;21.80;4.60;;;;;;;8.52;87.95;99422.03;5125593;27;20027;-76
2023/12/31 15:55:22;;;;;;;16.55;4.65;;;;;;;8.52;89.44;99429.19;5120362;27;20381;-76
2023/12/31 15:57:47;;;;;;;26.30;4.68;;;;;;;8.50;88.38;99415.94;5117085;27;20015;-76
2023/12/31 16:00:13;;;;;;;18.73;4.45;;;;;;;8.51;88.93;99432.88;5115549;27;20031;-76
2023/12/31 16:02:39;;;;;;;19.92;3.88;;;;;;;8.50;89.62;99432.00;5112531;27;20043;-75
2023/12/31 16:05:05;;;;;;;22.02;4.93;;;;;;;8.50;88.75;99429.31;5118296;27;20319;-76
2023/12/31 16:07:30;;;;;;;19.35;4.20;;;;;;;8.50;89.25;99421.28;5115758;27;20042;-73
2023/12/31 16:09:55;;;;;;;22.98;5.05;;;;;;;8.50;87.87;99423.13;5119194;27;20387;-73
2023/12/31 16:12:21;;;;;;;20.67;4.45;;;;;;;8.53;88.04;99433.56;5113357;27;20023;-75
2023/12/31 16:14:47;;;;;;;15.50;3.55;;;;;;;8.54;88.43;99444.13;5121992;27;20340;-74
2023/12/31 16:17:12;;;;;;;17.00;3.83;;;;;;;8.54;87.96;99437.94;5114883;27;20031;-72
2023/12/31 16:19:37;;;;;;;15.80;3.30;;;;;;;8.56;87.82;99441.31;5117715;27;20738;-72
2023/12/31 16:22:03;;;;;;;19.15;4.00;;;;;;;8.55;89.83;99434.25;5117825;27;20019;-73
2023/12/31 16:24:29;;;;;;;15.32;3.55;;;;;;;8.54;89.46;99438.78;5117763;27;20042;-73
2023/12/31 16:26:54;;;;;;;23.15;4.53;;;;;;;8.53;89.13;99446.94;5116736;27;20039;-73
2023/12/31 16:29:20;;;;;;;16.67;3.42;;;;;;;8.50;88.68;99442.72;5124020;27;20106;-74
2023/12/31 16:31:45;;;;;;;24.75;4.72;;;;;;;8.53;89.07;99452.31;5122754;27;20063;-72
2023/12/31 16:34:10;;;;;;;22.30;4.13;;;;;;;8.51;90.67;99432.88;5118860;27;20057;-73
2023/12/31 16:36:35;;;;;;;20.98;4.28;;;;;;;8.47;91.26;99436.78;5118501;27;20028;-72
2023/12/31 16:39:01;;;;;;;15.98;2.97;;;;;;;8.46;92.88;99435.09;5117884;27;20049;-72
2023/12/31 16:41:26;;;;;;;26.13;7.00;;;;;;;8.43;93.63;99436.16;5113536;27;20023;-73
2023/12/31 16:43:52;;;;;;;18.25;4.20;;;;;;;8.39;94.28;99430.25;5119666;27;20088;-73
2023/12/31 16:46:17;;;;;;;19.40;4.35;;;;;;;8.37;94.03;99437.53;5126654;27;20019;-73
2023/12/31 16:48:42;;;;;;;15.95;3.90;;;;;;;8.36;94.16;99425.16;5120494;27;20076;-73
2023/12/31 16:51:08;;;;;;;15.98;3.88;;;;;;;8.35;93.43;99427.97;5116807;27;20102;-72
2023/12/31 16:53:33;;;;;;;19.88;4.20;;;;;;;8.34;93.19;99437.81;5119064;27;20050;-73
2023/12/31 16:55:59;;;;;;;15.57;3.63;;;;;;;8.33;92.52;99436.13;5137721;27;20080;-72
2023/12/31 16:58:24;;;;;;;20.33;5.20;;;;;;;8.34;92.16;99427.09;5119453;27;20443;-72
2023/12/31 17:00:49;;;;;;;18.48;4.05;;;;;;;8.36;92.04;99424.28;5116890;27;20059;-73
2023/12/31 17:03:15;;;;;;;22.90;5.10;;;;;;;8.37;92.01;99420.63;5119385;27;20133;-72
2023/12/31 17:05:40;;;;;;;25.77;11.30;;;;;;;8.37;91.14;99421.47;5114909;27;20042;-73
2023/12/31 17:08:06;;;;;;;20.35;4.43;;;;;;;8.39;90.03;99432.06;5124934;27;20027;-73
2023/12/31 17:10:31;;;;;;;19.80;3.67;;;;;;;8.41;89.69;99427.44;5113662;27;20386;-72
2023/12/31 17:12:57;;;;;;;21.65;4.97;;;;;;;8.42;89.77;99429.13;5114356;27;20588;-72
2023/12/31 17:15:22;;;;;;;20.77;5.95;;;;;;;8.44;89.46;99434.34;5105249;27;20027;-72
2023/12/31 17:17:47;;;;;;;23.15;5.68;;;;;;;8.46;89.25;99438.59;5104499;27;20023;-74
2023/12/31 17:20:13;;;;;;;19.70;5.00;;;;;;;8.48;87.98;99438.50;5113487;27;20066;-75
2023/12/31 17:22:39;;;;;;;16.63;4.55;;;;;;;8.50;87.95;99441.88;5117291;27;20065;-75
2023/12/31 17:25:06;;;;;;;14.65;3.70;;;;;;;8.50;88.36;99444.53;5122132;27;20035;-76
2023/12/31 17:27:32;;;;;;;13.40;3.33;;;;;;;8.52;88.15;99445.25;5118110;27;20019;-75
2023/12/31 17:29:57;;;;;;;23.60;4.60;;;;;;;8.51;87.39;99446.25;5118940;27;20046;-76
2023/12/31 17:32:22;;;;;;;19.05;3.90;;;;;;;8.51;87.17;99438.22;5119702;27;20042;-75
2023/12/31 17:34:48;;;;;;;20.75;4.20;;;;;;;8.52;87.36;99434.53;5116074;27;20371;-74
2023/12/31 17:37:13;;;;;;;16.30;3.88;;;;;;;8.52;86.37;99439.91;5116881;27;20035;-74
2023/12/31 17:39:38;;;;;;;14.52;3.03;;;;;;;8.54;86.29;99445.97;5108615;27;20046;-74
2023/12/31 17:42:04;;;;;;;15.77;3.67;;;;;;;8.54;86.78;99451.34;5138216;27;20045;-74
2023/12/31 17:44:29;;;;;;;19.42;4.65;;;;;;;8.55;85.10;99447.66;5121038;27;20417;-74
2023/12/31 17:46:54;;;;;;;22.63;4.30;;;;;;;8.54;86.14;99445.97;5121875;27;20050;-74
2023/12/31 17:49:20;;;;;;;17.17;4.35;;;;;;;8.55;85.04;99450.34;5116443;27;20184;-74
2023/12/31 17:51:45;;;;;;;18.92;5.07;;;;;;;8.54;84.63;99448.66;5115053;27;20028;-74
2023/12/31 17:54:10;;;;;;;19.80;3.70;;;;;;;8.54;85.16;99449.50;5123319;27;20024;-74
2023/12/31 17:56:36;;;;;;;20.27;3.88;;;;;;;8.56;83.28;99444.88;5123256;27;20036;-74
2023/12/31 17:59:02;;;;;;;17.75;3.92;;;;;;;8.58;83.53;99455.44;5120882;27;20063;-74
2023/12/31 18:01:27;;;;;;;16.65;3.65;;;;;;;8.58;82.70;99439.38;5116149;27;20025;-74
2023/12/31 18:03:53;;;;;;;17.13;3.78;;;;;;;8.63;83.26;99445.16;5117612;27;20086;-74
2023/12/31 18:06:18;;;;;;;14.65;2.90;;;;;;;8.64;82.46;99454.91;5140987;27;20076;-74
2023/12/31 18:08:48;;;;;;;11.45;3.00;;;;;;;8.64;82.58;99460.25;5121814;27;20412;-74
2023/12/31 18:11:13;;;;;;;14.93;2.90;;;;;;;8.64;83.41;99462.94;5118774;28;20070;-74
2023/12/31 18:13:38;;;;;;;14.88;3.05;;;;;;;8.63;83.30;99463.91;5124394;27;20031;-74
2023/12/31 18:16:09;;;;;;;15.63;3.15;;;;;;;8.63;83.64;99447.84;5126121;27;20031;-74
2023/12/31 18:18:34;;;;;;;14.88;3.38;;;;;;;8.61;83.10;99465.88;5120985;27;20069;-74
2023/12/31 18:20:59;;;;;;;14.50;3.28;;;;;;;8.62;82.66;99458.69;5121161;28;20444;-74
2023/12/31 18:23:25;;;;;;;15.68;2.97;;;;;;;8.62;82.66;99459.53;5117185;28;20027;-74
2023/12/31 18:25:50;;;;;;;18.38;3.63;;;;;;;8.60;83.33;99461.50;5119113;28;20066;-74
2023/12/31 18:28:16;;;;;;;17.85;4.95;;;;;;;8.61;82.77;99460.53;5118722;28;20104;-72
2023/12/31 18:30:41;;;;;;;14.05;3.00;;;;;;;8.63;82.20;99468.44;5121062;28;20023;-74
2023/12/31 18:33:07;;;;;;;11.48;2.88;;;;;;;8.63;82.77;99473.78;5123658;27;20379;-71
2023/12/31 18:35:32;;;;;;;14.38;3.33;;;;;;;8.63;82.84;99471.94;5120587;28;20023;-73
2023/12/31 18:37:57;;;;;;;17.95;4.00;;;;;;;8.62;82.66;99472.91;5111533;28;20502;-72
2023/12/31 18:40:23;;;;;;;16.02;3.25;;;;;;;8.62;83.17;99478.28;5116911;28;20050;-72
2023/12/31 18:42:48;;;;;;;15.40;2.80;;;;;;;8.61;83.18;99481.09;5123623;28;20505;-72
2023/12/31 18:45:13;;;;;;;19.25;3.30;;;;;;;8.59;82.11;99478.56;5127018;27;20023;-72
2023/12/31 18:47:39;;;;;;;11.43;2.72;;;;;;;8.59;81.89;99494.63;5122099;27;20015;-72
2023/12/31 18:50:04;;;;;;;11.63;2.78;;;;;;;8.59;81.98;99480.38;5121595;28;20069;-72
2023/12/31 18:52:30;;;;;;;17.10;4.82;;;;;;;8.56;82.29;99476.13;5120642;28;20054;-72
2023/12/31 18:54:56;;;;;;;18.33;5.88;;;;;;;8.53;82.86;99479.09;5122121;28;20166;-72
2023/12/31 18:57:21;;;;;;;13.13;2.83;;;;;;;8.49;83.04;99478.53;5117930;28;20116;-72
2023/12/31 18:59:47;;;;;;;10.15;2.72;;;;;;;8.46;83.57;99486.78;5116217;28;20119;-72
2023/12/31 19:02:12;;;;;;;20.70;4.15;;;;;;;8.41;84.13;99486.31;5124206;28;20084;-72
2023/12/31 19:04:39;;;;;;;16.90;4.13;;;;;;;8.39;83.64;99481.09;5125253;27;20761;-72
2023/12/31 19:07:05;;;;;;;20.40;4.88;;;;;;;8.38;83.72;99481.25;5126761;27;20023;-72
2023/12/31 19:09:30;;;;;;;16.15;3.08;;;;;;;8.38;83.99;99489.28;5121618;27;20153;-72
2023/12/31 19:11:56;;;;;;;15.60;3.58;;;;;;;8.37;84.47;99477.69;5122970;27;20045;-72
2023/12/31 19:14:21;;;;;;;12.20;4.15;;;;;;;8.39;85.43;99482.94;5127405;27;20015;-72
2023/12/31 19:16:46;;;;;;;15.90;3.60;;;;;;;8.39;85.64;99481.09;5113980;27;20046;-72
2023/12/31 19:19:11;;;;;;;13.05;3.20;;;;;;;8.42;85.02;99492.50;5119841;27;20115;-72
2023/12/31 19:21:37;;;;;;;14.23;3.30;;;;;;;8.44;84.74;99495.94;5122703;27;20027;-72
2023/12/31 19:24:02;;;;;;;15.93;3.50;;;;;;;8.44;85.22;99496.78;5125541;27;20038;-72
2023/12/31 19:26:27;;;;;;;13.40;3.30;;;;;;;8.47;86.27;99503.72;5125658;27;20068;-72
2023/12/31 19:28:53;;;;;;;11.45;3.13;;;;;;;8.47;88.02;99514.44;5127287;27;20032;-72
2023/12/31 19:31:18;;;;;;;14.93;3.22;;;;;;;8.46;89.72;99520.75;5123990;27;20157;-75
2023/12/31 19:33:44;;;;;;;13.20;3.63;;;;;;;8.44;90.79;99528.06;5124789;27;21608;-74
2023/12/31 19:36:12;;;;;;;15.25;3.60;;;;;;;8.39;92.73;99525.78;5134180;27;20026;-72
2023/12/31 19:38:37;;;;;;;14.48;2.92;;;;;;;8.32;94.02;99527.28;5127185;27;20027;-72
2023/12/31 19:41:03;;;;;;;11.07;2.83;;;;;;;8.22;96.09;99535.22;5132044;27;20390;-72
2023/12/31 19:43:33;;;;;;;12.40;2.83;;;;;;;8.17;96.50;99540.09;5124076;27;20039;-72
2023/12/31 19:45:59;;;;;;;10.18;2.83;;;;;;;8.11;97.35;99540.63;5128599;27;20491;-72
2023/12/31 19:48:24;;;;;;;13.18;2.90;;;;;;;8.08;97.10;99538.22;5128818;27;20023;-72
2023/12/31 19:50:50;;;;;;;14.75;3.00;;;;;;;8.05;97.09;99534.84;5119837;27;20038;-72
2023/12/31 19:53:15;;;;;;;15.80;4.05;;;;;;;8.03;96.67;99539.44;5123416;27;20031;-72
2023/12/31 19:55:40;;;;;;;17.55;3.97;;;;;;;8.05;97.82;99545.53;5122019;27;20106;-72
2023/12/31 19:58:06;;;;;;;10.90;3.00;;;;;;;8.04;99.55;99546.50;5121537;27;20016;-75
2023/12/31 20:00:31;;;;;;;14.32;3.33;;;;;;;8.03;99.36;99552.00;5120501;27;20035;-72
2023/12/31 20:02:57;;;;;;;16.65;3.10;;;;;;;8.00;99.38;99555.75;5120070;27;20020;-72
2023/12/31 20:05:22;;;;;;;14.23;3.05;;;;;;;8.01;100.00;99552.13;5123748;27;20015;-72
2023/12/31 20:07:48;;;;;;;12.57;3.13;;;;;;;7.99;100.00;99555.88;5121698;27;20023;-72
2023/12/31 20:10:20;;;;;;;20.50;5.03;;;;;;;7.98;98.61;99560.41;5124708;27;20087;-72
2023/12/31 20:12:45;;;;;;;18.65;7.15;;;;;;;8.00;98.04;99550.41;5115581;27;20031;-72
2023/12/31 20:15:11;;;;;;;12.90;2.80;;;;;;;8.02;97.36;99556.50;5121959;27;20015;-72
2023/12/31 20:17:36;;;;;;;16.52;4.30;;;;;;;8.03;97.67;99552.81;5122848;27;20035;-72
2023/12/31 20:20:01;;;;;;;17.65;4.47;;;;;;;8.04;97.23;99549.19;5123652;27;20510;-72
2023/12/31 20:22:27;;;;;;;19.33;4.20;;;;;;;8.07;97.45;99553.44;5124949;27;20051;-72
2023/12/31 20:24:52;;;;;;;16.55;3.30;;;;;;;8.07;96.92;99542.72;5124413;27;20127;-72
2023/12/31 20:27:17;;;;;;;18.45;4.30;;;;;;;8.08;96.55;99549.75;5123998;27;20035;-72
2023/12/31 20:29:43;;;;;;;12.60;3.17;;;;;;;8.08;96.77;99549.75;5125347;27;20026;-73
2023/12/31 20:32:09;;;;;;;11.55;2.55;;;;;;;8.09;95.82;99550.63;5122497;27;20107;-72
2023/12/31 20:34:37;;;;;;;15.02;3.55;;;;;;;8.09;95.44;99555.97;5118255;27;20112;-72
2023/12/31 20:37:04;;;;;;;23.30;9.98;;;;;;;8.09;95.67;99555.97;5123823;27;20112;-72
2023/12/31 20:39:30;;;;;;;15.85;3.88;;;;;;;8.09;95.10;99555.97;5120413;27;20561;-72
2023/12/31 20:41:55;;;;;;;13.02;3.45;;;;;;;8.09;95.63;99559.50;5121204;27;20035;-71
2023/12/31 20:44:20;;;;;;;10.05;3.08;;;;;;;8.09;94.85;99569.34;5120972;27;20357;-72
2023/12/31 20:46:46;;;;;;;10.85;2.90;;;;;;;8.09;94.73;99566.69;5114910;27;20075;-72
2023/12/31 20:49:11;;;;;;;11.73;2.33;;;;;;;8.08;95.02;99565.81;5135148;27;20086;-74
2023/12/31 20:51:36;;;;;;;8.32;2.20;;;;;;;8.07;95.06;99571.28;5122409;27;20038;-74
2023/12/31 20:54:02;;;;;;;12.45;3.13;;;;;;;8.05;95.14;99582.13;5118291;27;20019;-74
2023/12/31 20:56:31;;;;;;;13.35;3.28;;;;;;;8.04;95.19;99577.78;5118390;27;20027;-74
2023/12/31 20:58:57;;;;;;;11.15;3.20;;;;;;;8.01;96.45;99573.53;5122028;27;20023;-74
2023/12/31 21:01:22;;;;;;;13.32;3.72;;;;;;;7.98;97.65;99581.81;5125370;27;20382;-74
2023/12/31 21:03:47;;;;;;;13.32;3.33;;;;;;;7.92;97.66;99566.28;5124771;27;20043;-74
2023/12/31 21:06:14;;;;;;;15.40;3.38;;;;;;;7.88;98.30;99571.00;5124482;27;20027;-74
2023/12/31 21:08:39;;;;;;;9.45;2.95;;;;;;;7.84;98.83;99590.13;5124163;27;20106;-74
2023/12/31 21:11:05;;;;;;;11.75;2.80;;;;;;;7.83;98.38;99597.31;5125462;27;20663;-74
2023/12/31 21:13:31;;;;;;;11.95;3.10;;;;;;;7.80;97.91;99583.31;5119797;27;20027;-74
2023/12/31 21:15:56;;;;;;;12.60;3.08;;;;;;;7.78;97.56;99595.97;5126694;27;20027;-74
2023/12/31 21:18:21;;;;;;;11.55;2.70;;;;;;;7.76;98.33;99609.47;5116784;27;20027;-74
2023/12/31 21:20:46;;;;;;;16.48;5.22;;;;;;;7.75;98.33;99604.25;5118721;27;20031;-74
2023/12/31 21:23:12;;;;;;;12.93;2.80;;;;;;;7.70;99.44;99586.75;5113489;27;20838;-74
2023/12/31 21:25:38;;;;;;;10.98;2.47;;;;;;;7.67;99.22;99600.38;5112914;27;20035;-74
2023/12/31 21:28:08;;;;;;;6.35;2.47;;;;;;;7.66;99.34;99595.16;5114250;27;20048;-74
2023/12/31 21:30:34;;;;;;;9.07;2.08;;;;;;;7.63;99.70;99598.91;5115137;27;20383;-74
2023/12/31 21:32:59;;;;;;;9.27;2.50;;;;;;;7.64;99.88;99594.41;5120865;27;20019;-74
2023/12/31 21:35:25;;;;;;;9.98;2.38;;;;;;;7.63;100.00;99593.56;5117231;27;20032;-74
2023/12/31 21:37:50;;;;;;;9.23;2.97;;;;;;;7.61;100.00;99606.19;5120730;27;20108;-74
2023/12/31 21:40:16;;;;;;;10.00;2.88;;;;;;;7.60;100.00;99590.28;5125072;27;20016;-74
2023/12/31 21:42:41;;;;;;;12.80;3.10;;;;;;;7.58;100.00;99589.56;5126829;27;20027;-74
2023/12/31 21:45:07;;;;;;;10.45;3.13;;;;;;;7.55;100.00;99585.31;5122131;27;20532;-74
2023/12/31 21:47:32;;;;;;;16.67;3.53;;;;;;;7.53;100.00;99592.63;5121181;27;20390;-74
2023/12/31 21:49:57;;;;;;;13.07;3.53;;;;;;;7.50;100.00;99584.84;5122684;27;20092;-74
2023/12/31 21:52:25;;;;;;;14.45;3.33;;;;;;;7.50;100.00;99576.84;5121315;27;20375;-74
2023/12/31 21:54:50;;;;;;;14.50;3.58;;;;;;;7.45;100.00;99573.66;5121906;27;20070;-74
2023/12/31 21:57:17;;;;;;;13.18;3.42;;;;;;;7.42;100.00;99585.44;5123584;27;20310;-74
2023/12/31 21:59:42;;;;;;;13.90;3.60;;;;;;;7.41;100.00;99580.22;5117701;27;20030;-72
2023/12/31 22:02:08;;;;;;;16.40;3.83;;;;;;;7.39;100.00;99583.03;5112690;27;20019;-72
2023/12/31 22:04:33;;;;;;;14.68;3.72;;;;;;;7.37;100.00;99589.50;5121099;27;20378;-72
2023/12/31 22:06:59;;;;;;;13.70;3.42;;;;;;;7.35;100.00;99589.63;5113754;27;20118;-72
2023/12/31 22:09:24;;;;;;;14.15;3.28;;;;;;;7.35;100.00;99589.63;5115425;27;20023;-72
2023/12/31 22:11:49;;;;;;;13.75;3.40;;;;;;;7.35;100.00;99589.63;5117711;27;20490;-72
2023/12/31 22:14:15;;;;;;;18.08;4.10;;;;;;;7.34;100.00;99595.94;5113742;27;20027;-72
2023/12/31 22:16:40;;;;;;;13.60;3.13;;;;;;;7.37;100.00;99605.53;5120094;27;20023;-72
2023/12/31 22:19:06;;;;;;;15.55;2.92;;;;;;;7.38;100.00;99601.84;5116918;27;20036;-72
2023/12/31 22:21:31;;;;;;;23.60;10.48;;;;;;;7.39;100.00;99600.91;5116485;28;20027;-72
2023/12/31 22:23:56;;;;;;;21.13;6.60;;;;;;;7.43;100.00;99613.88;5114478;28;20031;-72
2023/12/31 22:26:21;;;;;;;19.63;4.25;;;;;;;7.45;100.00;99605.75;5117857;28;20500;-72
2023/12/31 22:28:47;;;;;;;13.82;3.15;;;;;;;7.45;100.00;99627.13;5118923;28;20398;-72
2023/12/31 22:31:12;;;;;;;20.45;3.80;;;;;;;7.48;99.15;99608.16;5107276;28;20015;-72
2023/12/31 22:33:37;;;;;;;18.48;3.95;;;;;;;7.49;99.39;99613.38;5116641;28;20107;-72
2023/12/31 22:36:03;;;;;;;14.07;3.92;;;;;;;7.52;98.57;99629.19;5117962;28;20034;-72
2023/12/31 22:38:28;;;;;;;15.50;3.70;;;;;;;7.54;98.25;99621.06;5121891;28;20050;-72
2023/12/31 22:40:53;;;;;;;17.80;4.00;;;;;;;7.56;97.54;99616.44;5112500;27;20023;-72
2023/12/31 22:43:19;;;;;;;17.45;4.38;;;;;;;7.60;97.01;99622.38;5117037;27;20031;-72
2023/12/31 22:45:45;;;;;;;14.38;3.70;;;;;;;7.60;96.36;99636.59;5129665;27;20110;-72
2023/12/31 22:48:13;;;;;;;16.17;4.05;;;;;;;7.60;96.64;99635.72;5114121;27;20024;-72
2023/12/31 22:50:38;;;;;;;22.67;4.60;;;;;;;7.59;95.27;99640.25;5117710;27;20108;-72
2023/12/31 22:53:03;;;;;;;14.27;3.97;;;;;;;7.61;95.60;99648.97;5117776;27;20079;-72
2023/12/31 22:55:29;;;;;;;13.25;3.17;;;;;;;7.61;95.01;99654.31;5121277;27;20058;-72
2023/12/31 22:57:56;;;;;;;17.60;3.88;;;;;;;7.62;95.16;99653.38;5120375;27;20035;-72
2023/12/31 23:00:22;;;;;;;18.63;3.55;;;;;;;7.62;94.90;99644.50;5118776;27;20429;-72
2023/12/31 23:02:48;;;;;;;24.33;7.57;;;;;;;7.62;93.43;99655.19;5120933;27;20122;-73
2023/12/31 23:05:14;;;;;;;17.35;3.50;;;;;;;7.65;93.83;99638.91;5109670;27;20330;-72
2023/12/31 23:07:39;;;;;;;26.52;12.52;;;;;;;7.67;92.81;99648.50;5122815;27;20023;-72
2023/12/31 23:10:05;;;;;;;31.52;15.55;;;;;;;7.70;93.66;99647.38;5138905;27;20058;-72
2023/12/31 23:12:31;;;;;;;114.40;100.05;;;;;;;7.73;93.39;99640.94;5141848;27;20027;-73
2023/12/31 23:14:57;;;;;;;57.75;35.28;;;;;;;7.76;92.19;99643.38;5154152;27;20019;-73
2023/12/31 23:17:22;;;;;;;28.38;14.95;;;;;;;7.78;92.40;99630.75;5141554;27;20019;-73
2023/12/31 23:19:47;;;;;;;24.48;10.13;;;;;;;7.80;91.59;99648.34;5143494;27;20023;-73
2023/12/31 23:22:13;;;;;;;16.45;4.05;;;;;;;7.81;91.37;99634.00;5143758;27;20040;-72
2023/12/31 23:24:38;;;;;;;23.15;7.72;;;;;;;7.82;91.65;99634.88;5139948;27;20053;-73
2023/12/31 23:27:03;;;;;;;20.38;5.72;;;;;;;7.85;91.22;99645.31;5135771;27;20023;-72
2023/12/31 23:29:28;;;;;;;21.40;6.78;;;;;;;7.87;90.80;99640.69;5135516;27;20071;-72
2023/12/31 23:31:54;;;;;;;22.65;7.15;;;;;;;7.88;91.34;99645.91;5137223;27;20019;-73
2023/12/31 23:34:19;;;;;;;23.42;7.38;;;;;;;7.88;90.81;99642.41;5135127;27;20046;-72
2023/12/31 23:36:44;;;;;;;23.98;8.55;;;;;;;7.91;90.98;99643.97;5144371;27;20019;-72
2023/12/31 23:39:09;;;;;;;24.17;8.55;;;;;;;7.91;92.73;99654.69;5142681;27;20023;-72
2023/12/31 23:41:35;;;;;;;22.17;8.55;;;;;;;7.90;95.20;99650.28;5139707;27;20038;-72
2023/12/31 23:44:00;;;;;;;25.35;9.32;;;;;;;7.84;97.34;99660.50;5131895;27;20034;-73
2023/12/31 23:46:26;;;;;;;39.55;27.85;;;;;;;7.79;98.34;99656.50;5128908;28;20064;-72
2023/12/31 23:48:51;;;;;;;31.13;11.32;;;;;;;7.72;98.83;99652.63;5141641;27;20479;-72
2023/12/31 23:51:17;;;;;;;24.92;8.63;;;;;;;7.70;99.31;99663.44;5139976;27;20038;-72